createdAt,value
2023-04-26T05:30:34.308Z,7.25
2023-04-26T05:33:01.868Z,7.80
2023-04-26T05:35:29.369Z,6.38
2023-04-26T05:37:56.468Z,5.93
2023-04-26T05:40:24.044Z,5.68
2023-04-26T05:42:51.501Z,6.57
2023-04-26T05:45:19.069Z,5.50
2023-04-26T05:47:47.624Z,5.68
2023-04-26T05:50:15.030Z,5.70
2023-04-26T05:52:42.226Z,5.97
2023-04-26T05:55:10.311Z,5.70
2023-04-26T05:57:40.440Z,6.63
2023-04-26T06:00:11.434Z,8.82
2023-04-26T06:02:38.824Z,6.28
2023-04-26T06:05:06.901Z,4.95
2023-04-26T06:07:37.320Z,4.85
2023-04-26T06:10:05.235Z,4.88
2023-04-26T06:12:33.235Z,5.18
2023-04-26T06:15:01.370Z,4.25
2023-04-26T06:17:29.719Z,4.18
2023-04-26T06:19:57.135Z,4.03
2023-04-26T06:22:24.830Z,4.13
2023-04-26T06:24:52.186Z,4.50
2023-04-26T06:27:19.381Z,3.90
2023-04-26T06:29:47.875Z,4.35
2023-04-26T06:32:17.416Z,4.50
2023-04-26T06:34:45.719Z,4.38
2023-04-26T06:37:13.338Z,4.00
2023-04-26T06:39:40.646Z,4.15
2023-04-26T06:42:08.413Z,3.95
2023-04-26T06:44:36.057Z,4.03
2023-04-26T06:47:09.771Z,3.72
2023-04-26T06:49:37.678Z,2.88
2023-04-26T06:52:08.243Z,3.00
2023-04-26T06:54:45.936Z,2.78
2023-04-26T06:57:21.553Z,3.33
2023-04-26T06:59:49.039Z,2.72
2023-04-26T07:02:16.407Z,2.63
2023-04-26T07:04:44.612Z,2.20
2023-04-26T07:07:13.750Z,3.03
2023-04-26T07:09:41.218Z,2.42
2023-04-26T07:12:08.483Z,1.90
2023-04-26T07:14:40.579Z,2.28
2023-04-26T07:17:07.946Z,2.50
2023-04-26T07:19:35.762Z,2.60
2023-04-26T07:22:07.639Z,2.80
2023-04-26T07:24:35.358Z,2.53
2023-04-26T07:27:03.487Z,2.85
2023-04-26T07:29:30.724Z,2.65
2023-04-26T07:31:58.958Z,3.33
2023-04-26T07:34:27.915Z,2.63
2023-04-26T07:36:56.469Z,3.03
2023-04-26T07:39:25.222Z,2.60
2023-04-26T07:41:53.200Z,2.90
2023-04-26T07:44:21.228Z,2.65
2023-04-26T07:46:48.708Z,3.05
2023-04-26T07:49:16.400Z,3.33
2023-04-26T07:51:51.887Z,2.50
2023-04-26T07:54:22.441Z,2.67
2023-04-26T07:56:53.150Z,2.22
2023-04-26T07:59:22.666Z,2.20
2023-04-26T08:01:50.917Z,2.17
2023-04-26T08:04:35.106Z,2.53
2023-04-26T08:07:04.760Z,2.35
2023-04-26T08:09:33.761Z,1.83
2023-04-26T08:12:01.989Z,2.22
2023-04-26T08:14:32.043Z,2.55
2023-04-26T08:17:02.944Z,2.78
2023-04-26T08:19:32.141Z,2.50
2023-04-26T08:22:02.329Z,2.38
2023-04-26T08:24:30.124Z,2.00
2023-04-26T08:26:59.342Z,2.97
2023-04-26T08:29:28.689Z,2.92
2023-04-26T08:31:58.456Z,3.10
2023-04-26T08:34:27.654Z,2.92
2023-04-26T08:36:55.871Z,2.78
2023-04-26T08:39:24.734Z,2.60
2023-04-26T08:41:58.878Z,2.60
2023-04-26T08:44:32.019Z,2.67
2023-04-26T08:47:21.742Z,2.10
2023-04-26T08:50:05.539Z,2.75
2023-04-26T08:52:33.315Z,2.97
2023-04-26T08:55:01.110Z,2.67
2023-04-26T08:57:33.898Z,2.58
2023-04-26T09:00:05.737Z,3.05
2023-04-26T09:02:34.579Z,3.53
2023-04-26T09:05:02.452Z,3.10
2023-04-26T09:07:42.430Z,2.80
2023-04-26T09:10:11.637Z,2.83
2023-04-26T09:12:40.405Z,2.80
2023-04-26T09:15:08.468Z,2.50
2023-04-26T09:17:41.646Z,2.80
2023-04-26T09:20:30.105Z,2.72
2023-04-26T09:23:07.547Z,2.60
2023-04-26T09:25:35.437Z,2.42
2023-04-26T09:28:04.242Z,1.92
2023-04-26T09:30:39.657Z,2.47
2023-04-26T09:33:09.659Z,2.10
2023-04-26T09:35:42.154Z,2.40
2023-04-26T09:38:15.813Z,2.28
2023-04-26T09:40:43.762Z,2.72
2023-04-26T09:43:17.019Z,2.45
2023-04-26T09:45:45.194Z,2.35
2023-04-26T09:48:23.350Z,2.50
2023-04-26T09:50:53.584Z,2.03
2023-04-26T09:53:37.468Z,2.72
2023-04-26T09:56:12.144Z,2.45
2023-04-26T09:58:58.151Z,1.67
2023-04-26T10:01:26.973Z,1.48
2023-04-26T10:03:57.110Z,1.65
2023-04-26T10:06:25.280Z,2.10
2023-04-26T10:08:52.879Z,2.92
2023-04-26T10:11:22.174Z,2.78
2023-04-26T10:13:52.110Z,2.22
2023-04-26T10:16:21.388Z,2.80
2023-04-26T10:18:49.574Z,2.72
2023-04-26T10:21:22.866Z,2.83
2023-04-26T10:23:50.980Z,2.45
2023-04-26T10:26:49.070Z,2.75
2023-04-26T10:29:16.954Z,2.80
2023-04-26T10:32:10.925Z,2.50
2023-04-26T10:34:38.330Z,2.95
2023-04-26T10:37:23.607Z,2.00
2023-04-26T10:39:51.958Z,2.28
2023-04-26T10:42:24.018Z,2.95
2023-04-26T10:44:59.802Z,2.30
2023-04-26T10:47:28.498Z,2.35
2023-04-26T10:50:07.581Z,2.30
2023-04-26T10:52:43.419Z,2.88
2023-04-26T10:55:11.182Z,2.13
2023-04-26T10:57:52.966Z,2.60
2023-04-26T11:00:32.349Z,2.17
2023-04-26T11:03:04.806Z,2.20
2023-04-26T11:05:54.583Z,2.10
2023-04-26T11:08:30.113Z,3.75
2023-04-26T11:10:57.567Z,2.40
2023-04-26T11:13:24.967Z,2.60
2023-04-26T11:16:00.248Z,2.50
2023-04-26T11:18:28.459Z,2.58
2023-04-26T11:20:56.229Z,2.78
2023-04-26T11:23:24.341Z,2.20
2023-04-26T11:25:51.768Z,2.63
2023-04-26T11:28:19.800Z,2.63
2023-04-26T11:30:48.728Z,2.50
2023-04-26T11:33:24.034Z,3.45
2023-04-26T11:35:55.750Z,2.85
2023-04-26T11:38:27.065Z,1.77
2023-04-26T11:41:02.310Z,2.10
2023-04-26T11:43:34.178Z,2.75
2023-04-26T11:46:02.009Z,1.95
2023-04-26T11:48:30.398Z,2.42
2023-04-26T11:51:01.247Z,2.13
2023-04-26T11:53:42.263Z,2.10
2023-04-26T11:56:20.485Z,2.30
2023-04-26T11:58:49.768Z,2.20
2023-04-26T12:01:24.733Z,2.25
2023-04-26T12:03:54.180Z,3.65
2023-04-26T12:06:41.924Z,3.10
2023-04-26T12:09:13.695Z,2.15
2023-04-26T12:11:41.387Z,1.80
2023-04-26T12:14:10.157Z,2.13
2023-04-26T12:16:38.473Z,2.47
2023-04-26T12:19:09.767Z,1.95
2023-04-26T12:21:55.629Z,1.95
2023-04-26T12:24:34.167Z,2.22
2023-04-26T12:27:02.966Z,1.80
2023-04-26T12:29:32.082Z,3.05
2023-04-26T12:32:00.334Z,2.45
2023-04-26T12:34:27.933Z,2.10
2023-04-26T12:36:55.922Z,2.17
2023-04-26T12:39:23.320Z,2.10
2023-04-26T12:41:50.514Z,1.92
2023-04-26T12:44:20.446Z,1.80
2023-04-26T12:46:49.268Z,1.73
2023-04-26T12:49:17.538Z,2.38
2023-04-26T12:51:49.110Z,2.35
2023-04-26T12:54:22.099Z,2.45
2023-04-26T12:56:52.139Z,3.17
2023-04-26T12:59:20.576Z,3.60
2023-04-26T13:01:47.925Z,2.10
2023-04-26T13:04:15.923Z,2.30
2023-04-26T13:06:43.731Z,1.95
2023-04-26T13:09:13.164Z,1.88
2023-04-26T13:11:42.063Z,1.95
2023-04-26T13:14:09.633Z,2.10
2023-04-26T13:16:38.864Z,2.00
2023-04-26T13:19:06.455Z,2.67
2023-04-26T13:21:33.992Z,2.80
2023-04-26T13:24:01.255Z,2.35
2023-04-26T13:26:28.415Z,2.38
2023-04-26T13:28:56.214Z,2.25
2023-04-26T13:31:25.253Z,3.00
2023-04-26T13:33:52.785Z,2.20
2023-04-26T13:36:21.866Z,1.70
2023-04-26T13:38:48.879Z,2.22
2023-04-26T13:41:16.344Z,1.90
2023-04-26T13:43:43.987Z,2.30
2023-04-26T13:46:11.102Z,1.92
2023-04-26T13:48:38.340Z,1.67
2023-04-26T13:51:06.988Z,2.38
2023-04-26T13:53:34.697Z,2.53
2023-04-26T13:56:02.302Z,2.50
2023-04-26T13:58:29.906Z,3.13
2023-04-26T14:00:56.999Z,3.53
2023-04-26T14:03:24.713Z,2.85
2023-04-26T14:05:52.521Z,3.00
2023-04-26T14:08:19.980Z,2.60
2023-04-26T14:10:47.561Z,2.63
2023-04-26T14:13:15.956Z,2.55
2023-04-26T14:15:43.533Z,2.88
2023-04-26T14:18:11.413Z,2.90
2023-04-26T14:20:39.003Z,2.40
2023-04-26T14:23:06.433Z,3.35
2023-04-26T14:25:33.549Z,2.50
2023-04-26T14:28:01.745Z,3.55
2023-04-26T14:30:29.500Z,2.67
2023-04-26T14:32:56.677Z,3.03
2023-04-26T14:35:24.282Z,3.35
2023-04-26T14:37:51.796Z,3.50
2023-04-26T14:40:18.996Z,3.22
2023-04-26T14:42:46.357Z,2.55
2023-04-26T14:45:13.688Z,3.08
2023-04-26T14:47:40.974Z,3.28
2023-04-26T14:50:09.965Z,2.85
2023-04-26T14:52:37.334Z,2.72
2023-04-26T14:55:05.567Z,2.45
2023-04-26T14:57:34.574Z,3.15
2023-04-26T15:00:07.304Z,3.25
2023-04-26T15:02:34.612Z,2.45
2023-04-26T15:05:03.766Z,2.38
2023-04-26T15:07:32.905Z,2.17
2023-04-26T15:10:01.546Z,2.90
2023-04-26T15:12:29.322Z,2.25
2023-04-26T15:14:56.891Z,2.40
2023-04-26T15:17:24.446Z,2.53
2023-04-26T15:19:52.102Z,2.50
2023-04-26T15:22:19.153Z,2.30
2023-04-26T15:24:46.796Z,1.83
2023-04-26T15:27:13.805Z,2.72
2023-04-26T15:29:40.972Z,2.00
2023-04-26T15:32:08.638Z,2.40
2023-04-26T15:34:40.795Z,2.60
2023-04-26T15:37:08.037Z,2.05
2023-04-26T15:39:35.274Z,2.22
2023-04-26T15:42:02.556Z,2.20
2023-04-26T15:44:30.702Z,2.38
2023-04-26T15:46:57.881Z,2.53
2023-04-26T15:49:25.732Z,3.15
2023-04-26T15:51:53.389Z,2.58
2023-04-26T15:54:21.648Z,2.63
2023-04-26T15:56:49.391Z,2.83
2023-04-26T15:59:16.556Z,2.63
